sensor_id;sensor_type;location;lat;lon;timestamp;temperature;humidity
11538;DHT22;50159;49.426;11.182;2024-03-17T00:01:37;5.80;99.90
11538;DHT22;50159;49.426;11.182;2024-03-17T00:04:06;5.70;99.90
11538;DHT22;50159;49.426;11.182;2024-03-17T00:06:32;5.70;99.90
11538;DHT22;50159;49.426;11.182;2024-03-17T00:08:58;5.60;99.90
11538;DHT22;50159;49.426;11.182;2024-03-17T00:11:24;5.50;99.90
11538;DHT22;50159;49.426;11.182;2024-03-17T00:13:50;5.50;99.90
11538;DHT22;50159;49.426;11.182;2024-03-17T00:16:16;5.50;99.90
11538;DHT22;50159;49.426;11.182;2024-03-17T00:18:45;5.40;99.90
11538;DHT22;50159;49.426;11.182;2024-03-17T00:21:13;5.40;99.90
11538;DHT22;50159;49.426;11.182;2024-03-17T00:23:39;5.30;99.90
11538;DHT22;50159;49.426;11.182;2024-03-17T00:26:05;5.20;99.90
11538;DHT22;50159;49.426;11.182;2024-03-17T00:28:31;5.20;99.90
11538;DHT22;50159;49.426;11.182;2024-03-17T00:30:57;5.10;99.90
11538;DHT22;50159;49.426;11.182;2024-03-17T00:33:23;5.10;99.90
11538;DHT22;50159;49.426;11.182;2024-03-17T00:35:49;5.00;99.90
11538;DHT22;50159;49.426;11.182;2024-03-17T00:38:16;5.00;99.90
11538;DHT22;50159;49.426;11.182;2024-03-17T00:40:42;5.00;99.90
11538;DHT22;50159;49.426;11.182;2024-03-17T00:43:10;4.90;99.90
11538;DHT22;50159;49.426;11.182;2024-03-17T00:45:37;4.90;99.90
11538;DHT22;50159;49.426;11.182;2024-03-17T00:48:03;4.80;99.90
11538;DHT22;50159;49.426;11.182;2024-03-17T00:50:31;4.70;99.90
11538;DHT22;50159;49.426;11.182;2024-03-17T00:52:57;4.70;99.90
11538;DHT22;50159;49.426;11.182;2024-03-17T00:55:23;4.70;99.90
11538;DHT22;50159;49.426;11.182;2024-03-17T00:57:49;4.70;99.90
11538;DHT22;50159;49.426;11.182;2024-03-17T01:00:15;4.70;99.90
11538;DHT22;50159;49.426;11.182;2024-03-17T01:02:41;4.70;99.90
11538;DHT22;50159;49.426;11.182;2024-03-17T01:05:07;4.80;99.90
11538;DHT22;50159;49.426;11.182;2024-03-17T01:07:33;4.80;99.90
11538;DHT22;50159;49.426;11.182;2024-03-17T01:09:59;4.80;99.90
11538;DHT22;50159;49.426;11.182;2024-03-17T01:12:25;4.80;99.90
11538;DHT22;50159;49.426;11.182;2024-03-17T01:14:51;4.80;99.90
11538;DHT22;50159;49.426;11.182;2024-03-17T01:17:17;4.80;99.90
11538;DHT22;50159;49.426;11.182;2024-03-17T01:19:44;4.80;99.90
11538;DHT22;50159;49.426;11.182;2024-03-17T01:22:10;4.80;99.90
11538;DHT22;50159;49.426;11.182;2024-03-17T01:24:36;4.70;99.90
11538;DHT22;50159;49.426;11.182;2024-03-17T01:27:05;4.70;99.90
11538;DHT22;50159;49.426;11.182;2024-03-17T01:29:32;4.70;99.90
11538;DHT22;50159;49.426;11.182;2024-03-17T01:31:57;4.70;99.90
11538;DHT22;50159;49.426;11.182;2024-03-17T01:34:23;4.70;99.90
11538;DHT22;50159;49.426;11.182;2024-03-17T01:36:49;4.60;99.90
11538;DHT22;50159;49.426;11.182;2024-03-17T01:39:15;4.70;99.90
11538;DHT22;50159;49.426;11.182;2024-03-17T01:41:42;4.70;99.90
11538;DHT22;50159;49.426;11.182;2024-03-17T01:44:08;4.80;99.90
11538;DHT22;50159;49.426;11.182;2024-03-17T01:46:47;4.70;99.90
11538;DHT22;50159;49.426;11.182;2024-03-17T01:49:13;4.70;99.90
11538;DHT22;50159;49.426;11.182;2024-03-17T01:51:39;4.70;99.90
11538;DHT22;50159;49.426;11.182;2024-03-17T01:54:05;4.70;99.90
11538;DHT22;50159;49.426;11.182;2024-03-17T01:56:31;4.70;99.90
11538;DHT22;50159;49.426;11.182;2024-03-17T01:58:57;4.70;99.90
11538;DHT22;50159;49.426;11.182;2024-03-17T02:01:23;4.70;99.90
11538;DHT22;50159;49.426;11.182;2024-03-17T02:03:49;4.70;99.90
11538;DHT22;50159;49.426;11.182;2024-03-17T02:06:15;4.60;99.90
11538;DHT22;50159;49.426;11.182;2024-03-17T02:08:52;4.60;99.90
11538;DHT22;50159;49.426;11.182;2024-03-17T02:11:23;4.60;99.90
11538;DHT22;50159;49.426;11.182;2024-03-17T02:13:51;4.60;99.90
11538;DHT22;50159;49.426;11.182;2024-03-17T02:16:18;4.60;99.90
11538;DHT22;50159;49.426;11.182;2024-03-17T02:18:45;4.60;99.90
11538;DHT22;50159;49.426;11.182;2024-03-17T02:21:12;4.60;99.90
11538;DHT22;50159;49.426;11.182;2024-03-17T02:23:44;4.50;99.90
11538;DHT22;50159;49.426;11.182;2024-03-17T02:26:10;4.50;99.90
11538;DHT22;50159;49.426;11.182;2024-03-17T02:28:40;4.40;99.90
11538;DHT22;50159;49.426;11.182;2024-03-17T02:31:10;4.40;99.90
11538;DHT22;50159;49.426;11.182;2024-03-17T02:33:37;4.40;99.90
11538;DHT22;50159;49.426;11.182;2024-03-17T02:36:04;4.40;99.90
11538;DHT22;50159;49.426;11.182;2024-03-17T02:38:33;4.30;99.90
11538;DHT22;50159;49.426;11.182;2024-03-17T02:41:18;4.30;99.90
11538;DHT22;50159;49.426;11.182;2024-03-17T02:43:44;4.20;99.90
11538;DHT22;50159;49.426;11.182;2024-03-17T02:46:11;4.20;99.90
11538;DHT22;50159;49.426;11.182;2024-03-17T02:48:39;4.10;99.90
11538;DHT22;50159;49.426;11.182;2024-03-17T02:51:13;4.00;99.90
11538;DHT22;50159;49.426;11.182;2024-03-17T02:53:43;4.00;99.90
11538;DHT22;50159;49.426;11.182;2024-03-17T02:56:12;4.00;99.90
11538;DHT22;50159;49.426;11.182;2024-03-17T02:58:43;3.90;99.90
11538;DHT22;50159;49.426;11.182;2024-03-17T03:01:10;3.80;99.90
11538;DHT22;50159;49.426;11.182;2024-03-17T03:03:36;3.90;99.90
11538;DHT22;50159;49.426;11.182;2024-03-17T03:06:02;3.90;99.90
11538;DHT22;50159;49.426;11.182;2024-03-17T03:08:30;3.90;99.90
11538;DHT22;50159;49.426;11.182;2024-03-17T03:10:56;3.90;99.90
11538;DHT22;50159;49.426;11.182;2024-03-17T03:13:22;3.80;99.90
11538;DHT22;50159;49.426;11.182;2024-03-17T03:15:48;3.70;99.90
11538;DHT22;50159;49.426;11.182;2024-03-17T03:18:14;3.70;99.90
11538;DHT22;50159;49.426;11.182;2024-03-17T03:20:40;3.70;99.90
11538;DHT22;50159;49.426;11.182;2024-03-17T03:23:06;3.70;99.90
11538;DHT22;50159;49.426;11.182;2024-03-17T03:25:32;3.60;99.90
11538;DHT22;50159;49.426;11.182;2024-03-17T03:27:58;3.70;99.90
11538;DHT22;50159;49.426;11.182;2024-03-17T03:30:24;3.70;99.90
11538;DHT22;50159;49.426;11.182;2024-03-17T03:32:50;3.70;99.90
11538;DHT22;50159;49.426;11.182;2024-03-17T03:35:16;3.80;99.90
11538;DHT22;50159;49.426;11.182;2024-03-17T03:37:42;3.80;99.90
11538;DHT22;50159;49.426;11.182;2024-03-17T03:40:08;3.90;99.90
11538;DHT22;50159;49.426;11.182;2024-03-17T03:42:43;3.90;99.90
11538;DHT22;50159;49.426;11.182;2024-03-17T03:45:10;3.90;99.90
11538;DHT22;50159;49.426;11.182;2024-03-17T03:47:41;3.90;99.90
11538;DHT22;50159;49.426;11.182;2024-03-17T03:50:08;3.90;99.90
11538;DHT22;50159;49.426;11.182;2024-03-17T03:52:38;3.90;99.90
11538;DHT22;50159;49.426;11.182;2024-03-17T03:55:06;3.90;99.90
11538;DHT22;50159;49.426;11.182;2024-03-17T03:57:33;3.90;99.90
11538;DHT22;50159;49.426;11.182;2024-03-17T03:59:59;3.90;99.90
11538;DHT22;50159;49.426;11.182;2024-03-17T04:02:25;3.90;99.90
11538;DHT22;50159;49.426;11.182;2024-03-17T04:04:57;3.90;99.90
11538;DHT22;50159;49.426;11.182;2024-03-17T04:07:23;3.90;99.90
11538;DHT22;50159;49.426;11.182;2024-03-17T04:09:49;3.90;99.90
11538;DHT22;50159;49.426;11.182;2024-03-17T04:12:15;3.90;99.90
11538;DHT22;50159;49.426;11.182;2024-03-17T04:14:41;3.90;99.90
11538;DHT22;50159;49.426;11.182;2024-03-17T04:17:07;4.00;99.90
11538;DHT22;50159;49.426;11.182;2024-03-17T04:19:33;4.00;99.90
11538;DHT22;50159;49.426;11.182;2024-03-17T04:21:58;4.00;99.90
11538;DHT22;50159;49.426;11.182;2024-03-17T04:24:24;4.00;99.90
11538;DHT22;50159;49.426;11.182;2024-03-17T04:26:50;4.00;99.90
11538;DHT22;50159;49.426;11.182;2024-03-17T04:29:16;4.00;99.90
11538;DHT22;50159;49.426;11.182;2024-03-17T04:31:42;4.00;99.90
11538;DHT22;50159;49.426;11.182;2024-03-17T04:34:08;4.00;99.90
11538;DHT22;50159;49.426;11.182;2024-03-17T04:36:34;4.00;99.90
11538;DHT22;50159;49.426;11.182;2024-03-17T04:39:00;4.00;99.90
11538;DHT22;50159;49.426;11.182;2024-03-17T04:41:26;4.10;99.90
11538;DHT22;50159;49.426;11.182;2024-03-17T04:43:51;4.10;99.90
11538;DHT22;50159;49.426;11.182;2024-03-17T04:46:18;4.10;99.90
11538;DHT22;50159;49.426;11.182;2024-03-17T04:48:44;4.10;99.90
11538;DHT22;50159;49.426;11.182;2024-03-17T04:51:14;4.10;99.90
11538;DHT22;50159;49.426;11.182;2024-03-17T04:53:41;4.10;99.90
11538;DHT22;50159;49.426;11.182;2024-03-17T04:56:07;4.10;99.90
11538;DHT22;50159;49.426;11.182;2024-03-17T04:58:33;4.10;99.90
11538;DHT22;50159;49.426;11.182;2024-03-17T05:01:03;4.10;99.90
11538;DHT22;50159;49.426;11.182;2024-03-17T05:03:32;4.00;99.90
11538;DHT22;50159;49.426;11.182;2024-03-17T05:06:04;4.00;99.90
11538;DHT22;50159;49.426;11.182;2024-03-17T05:08:31;4.10;99.90
11538;DHT22;50159;49.426;11.182;2024-03-17T05:11:02;4.10;99.90
11538;DHT22;50159;49.426;11.182;2024-03-17T05:13:33;4.10;99.90
11538;DHT22;50159;49.426;11.182;2024-03-17T05:16:00;4.10;99.90
11538;DHT22;50159;49.426;11.182;2024-03-17T05:18:26;4.10;99.90
11538;DHT22;50159;49.426;11.182;2024-03-17T05:23:29;4.10;99.90
11538;DHT22;50159;49.426;11.182;2024-03-17T05:25:55;4.10;99.90
11538;DHT22;50159;49.426;11.182;2024-03-17T05:28:22;4.10;99.90
11538;DHT22;50159;49.426;11.182;2024-03-17T05:30:48;4.20;99.90
11538;DHT22;50159;49.426;11.182;2024-03-17T05:33:16;4.20;99.90
11538;DHT22;50159;49.426;11.182;2024-03-17T05:35:56;4.20;99.90
11538;DHT22;50159;49.426;11.182;2024-03-17T05:38:23;4.20;99.90
11538;DHT22;50159;49.426;11.182;2024-03-17T05:43:21;4.20;99.90
11538;DHT22;50159;49.426;11.182;2024-03-17T05:45:47;4.20;99.90
11538;DHT22;50159;49.426;11.182;2024-03-17T05:48:13;4.20;99.90
11538;DHT22;50159;49.426;11.182;2024-03-17T05:50:39;4.20;99.90
11538;DHT22;50159;49.426;11.182;2024-03-17T05:53:05;4.20;99.90
11538;DHT22;50159;49.426;11.182;2024-03-17T05:55:31;4.30;99.90
11538;DHT22;50159;49.426;11.182;2024-03-17T05:57:56;4.30;99.90
11538;DHT22;50159;49.426;11.182;2024-03-17T06:00:22;4.40;99.90
11538;DHT22;50159;49.426;11.182;2024-03-17T06:02:48;4.40;99.90
11538;DHT22;50159;49.426;11.182;2024-03-17T06:05:14;4.40;99.90
11538;DHT22;50159;49.426;11.182;2024-03-17T06:07:40;4.40;99.90
11538;DHT22;50159;49.426;11.182;2024-03-17T06:10:06;4.40;99.90
11538;DHT22;50159;49.426;11.182;2024-03-17T06:12:32;4.40;99.90
11538;DHT22;50159;49.426;11.182;2024-03-17T06:14:59;4.40;99.90
11538;DHT22;50159;49.426;11.182;2024-03-17T06:17:25;4.50;99.90
11538;DHT22;50159;49.426;11.182;2024-03-17T06:19:52;4.50;99.90
11538;DHT22;50159;49.426;11.182;2024-03-17T06:22:17;4.50;99.90
11538;DHT22;50159;49.426;11.182;2024-03-17T06:24:43;4.60;99.90
11538;DHT22;50159;49.426;11.182;2024-03-17T06:27:09;4.60;99.90
11538;DHT22;50159;49.426;11.182;2024-03-17T06:29:35;4.70;99.90
11538;DHT22;50159;49.426;11.182;2024-03-17T06:32:01;4.70;99.90
11538;DHT22;50159;49.426;11.182;2024-03-17T06:34:27;4.70;99.90
11538;DHT22;50159;49.426;11.182;2024-03-17T06:36:53;4.80;99.90
11538;DHT22;50159;49.426;11.182;2024-03-17T06:39:19;4.90;99.90
11538;DHT22;50159;49.426;11.182;2024-03-17T06:41:46;5.00;99.90
11538;DHT22;50159;49.426;11.182;2024-03-17T06:44:12;5.10;99.90
11538;DHT22;50159;49.426;11.182;2024-03-17T06:46:38;5.10;99.90
11538;DHT22;50159;49.426;11.182;2024-03-17T06:49:04;5.20;99.90
11538;DHT22;50159;49.426;11.182;2024-03-17T06:51:30;5.30;99.90
11538;DHT22;50159;49.426;11.182;2024-03-17T06:53:55;5.30;99.90
11538;DHT22;50159;49.426;11.182;2024-03-17T06:56:22;5.40;99.90
11538;DHT22;50159;49.426;11.182;2024-03-17T06:58:48;5.50;99.90
11538;DHT22;50159;49.426;11.182;2024-03-17T07:01:13;5.50;99.90
11538;DHT22;50159;49.426;11.182;2024-03-17T07:03:39;5.60;99.90
11538;DHT22;50159;49.426;11.182;2024-03-17T07:06:05;5.60;99.90
11538;DHT22;50159;49.426;11.182;2024-03-17T07:08:33;5.70;99.90
11538;DHT22;50159;49.426;11.182;2024-03-17T07:11:05;5.80;99.90
11538;DHT22;50159;49.426;11.182;2024-03-17T07:13:33;5.90;99.90
11538;DHT22;50159;49.426;11.182;2024-03-17T07:16:01;6.00;99.90
11538;DHT22;50159;49.426;11.182;2024-03-17T07:18:28;6.10;99.90
11538;DHT22;50159;49.426;11.182;2024-03-17T07:21:01;6.20;99.90
11538;DHT22;50159;49.426;11.182;2024-03-17T07:23:29;6.40;99.90
11538;DHT22;50159;49.426;11.182;2024-03-17T07:25:56;6.40;99.90
11538;DHT22;50159;49.426;11.182;2024-03-17T07:28:24;6.50;99.90
11538;DHT22;50159;49.426;11.182;2024-03-17T07:30:54;6.60;99.90
11538;DHT22;50159;49.426;11.182;2024-03-17T07:33:22;6.70;99.90
11538;DHT22;50159;49.426;11.182;2024-03-17T07:35:49;6.70;99.90
11538;DHT22;50159;49.426;11.182;2024-03-17T07:38:20;6.80;99.90
11538;DHT22;50159;49.426;11.182;2024-03-17T07:40:55;6.90;99.90
11538;DHT22;50159;49.426;11.182;2024-03-17T07:43:28;7.00;99.90
11538;DHT22;50159;49.426;11.182;2024-03-17T07:46:03;7.20;99.90
11538;DHT22;50159;49.426;11.182;2024-03-17T07:48:33;7.30;99.90
11538;DHT22;50159;49.426;11.182;2024-03-17T07:51:04;7.40;99.90
11538;DHT22;50159;49.426;11.182;2024-03-17T07:53:34;7.60;99.90
11538;DHT22;50159;49.426;11.182;2024-03-17T07:58:37;7.90;99.90
11538;DHT22;50159;49.426;11.182;2024-03-17T08:01:05;8.00;99.90
11538;DHT22;50159;49.426;11.182;2024-03-17T08:03:33;8.20;99.90
11538;DHT22;50159;49.426;11.182;2024-03-17T08:06:00;8.30;99.90
11538;DHT22;50159;49.426;11.182;2024-03-17T08:08:27;8.50;99.90
11538;DHT22;50159;49.426;11.182;2024-03-17T08:10:54;8.60;99.90
11538;DHT22;50159;49.426;11.182;2024-03-17T08:13:20;8.80;99.90
11538;DHT22;50159;49.426;11.182;2024-03-17T08:15:54;9.10;99.90
11538;DHT22;50159;49.426;11.182;2024-03-17T08:18:24;9.30;99.90
11538;DHT22;50159;49.426;11.182;2024-03-17T08:20:50;9.40;99.90
11538;DHT22;50159;49.426;11.182;2024-03-17T08:23:16;9.40;99.90
11538;DHT22;50159;49.426;11.182;2024-03-17T08:25:42;9.50;99.90
11538;DHT22;50159;49.426;11.182;2024-03-17T08:28:08;9.40;99.90
11538;DHT22;50159;49.426;11.182;2024-03-17T08:30:34;9.50;99.90
11538;DHT22;50159;49.426;11.182;2024-03-17T08:33:00;9.60;99.90
11538;DHT22;50159;49.426;11.182;2024-03-17T08:35:26;9.60;99.90
11538;DHT22;50159;49.426;11.182;2024-03-17T08:37:52;9.70;99.90
11538;DHT22;50159;49.426;11.182;2024-03-17T08:40:21;9.80;99.90
11538;DHT22;50159;49.426;11.182;2024-03-17T08:42:48;10.00;99.90
11538;DHT22;50159;49.426;11.182;2024-03-17T08:45:14;10.10;99.90
11538;DHT22;50159;49.426;11.182;2024-03-17T08:47:41;10.40;99.90
11538;DHT22;50159;49.426;11.182;2024-03-17T08:50:08;10.60;99.90
11538;DHT22;50159;49.426;11.182;2024-03-17T08:52:34;10.80;99.90
11538;DHT22;50159;49.426;11.182;2024-03-17T08:55:00;11.00;99.10
11538;DHT22;50159;49.426;11.182;2024-03-17T08:57:29;11.10;98.00
11538;DHT22;50159;49.426;11.182;2024-03-17T08:59:55;11.30;97.40
11538;DHT22;50159;49.426;11.182;2024-03-17T09:02:21;11.30;93.60
11538;DHT22;50159;49.426;11.182;2024-03-17T09:04:47;11.40;93.70
11538;DHT22;50159;49.426;11.182;2024-03-17T09:07:13;11.50;93.10
11538;DHT22;50159;49.426;11.182;2024-03-17T09:09:46;11.60;92.30
11538;DHT22;50159;49.426;11.182;2024-03-17T09:12:13;11.70;91.00
11538;DHT22;50159;49.426;11.182;2024-03-17T09:14:39;11.80;90.50
11538;DHT22;50159;49.426;11.182;2024-03-17T09:17:06;11.70;87.80
11538;DHT22;50159;49.426;11.182;2024-03-17T09:19:32;11.70;87.40
11538;DHT22;50159;49.426;11.182;2024-03-17T09:21:59;11.70;86.40
11538;DHT22;50159;49.426;11.182;2024-03-17T09:24:25;11.80;87.60
11538;DHT22;50159;49.426;11.182;2024-03-17T09:26:52;11.90;89.10
11538;DHT22;50159;49.426;11.182;2024-03-17T09:29:18;11.90;81.60
11538;DHT22;50159;49.426;11.182;2024-03-17T09:31:44;11.80;82.50
11538;DHT22;50159;49.426;11.182;2024-03-17T09:34:10;11.80;80.60
11538;DHT22;50159;49.426;11.182;2024-03-17T09:36:36;11.70;81.30
11538;DHT22;50159;49.426;11.182;2024-03-17T09:39:02;11.60;81.90
11538;DHT22;50159;49.426;11.182;2024-03-17T09:41:29;11.60;83.90
11538;DHT22;50159;49.426;11.182;2024-03-17T09:43:56;11.60;82.00
11538;DHT22;50159;49.426;11.182;2024-03-17T09:46:23;11.60;84.10
11538;DHT22;50159;49.426;11.182;2024-03-17T09:48:49;11.60;84.20
11538;DHT22;50159;49.426;11.182;2024-03-17T09:51:20;11.70;84.80
11538;DHT22;50159;49.426;11.182;2024-03-17T09:53:50;11.80;85.30
11538;DHT22;50159;49.426;11.182;2024-03-17T09:56:18;11.90;84.20
11538;DHT22;50159;49.426;11.182;2024-03-17T09:58:45;12.10;83.50
11538;DHT22;50159;49.426;11.182;2024-03-17T10:01:15;12.10;82.80
11538;DHT22;50159;49.426;11.182;2024-03-17T10:03:46;12.10;79.60
11538;DHT22;50159;49.426;11.182;2024-03-17T10:06:24;12.00;77.60
11538;DHT22;50159;49.426;11.182;2024-03-17T10:08:55;11.80;78.20
11538;DHT22;50159;49.426;11.182;2024-03-17T10:11:25;11.60;77.60
11538;DHT22;50159;49.426;11.182;2024-03-17T10:14:05;11.50;78.10
11538;DHT22;50159;49.426;11.182;2024-03-17T10:16:33;11.40;77.90
11538;DHT22;50159;49.426;11.182;2024-03-17T10:19:08;11.30;79.50
11538;DHT22;50159;49.426;11.182;2024-03-17T10:21:36;11.40;81.30
11538;DHT22;50159;49.426;11.182;2024-03-17T10:24:13;11.50;81.40
11538;DHT22;50159;49.426;11.182;2024-03-17T10:26:50;11.50;80.70
11538;DHT22;50159;49.426;11.182;2024-03-17T10:31:56;11.70;81.60
11538;DHT22;50159;49.426;11.182;2024-03-17T10:34:23;11.80;81.80
11538;DHT22;50159;49.426;11.182;2024-03-17T10:36:51;11.90;81.60
11538;DHT22;50159;49.426;11.182;2024-03-17T10:39:22;12.00;81.60
11538;DHT22;50159;49.426;11.182;2024-03-17T10:42:00;12.10;81.20
11538;DHT22;50159;49.426;11.182;2024-03-17T10:44:31;12.50;81.20
11538;DHT22;50159;49.426;11.182;2024-03-17T10:46:59;12.90;80.90
11538;DHT22;50159;49.426;11.182;2024-03-17T10:49:27;13.40;81.20
11538;DHT22;50159;49.426;11.182;2024-03-17T10:51:59;13.60;75.70
11538;DHT22;50159;49.426;11.182;2024-03-17T10:54:26;13.70;74.00
11538;DHT22;50159;49.426;11.182;2024-03-17T10:57:01;13.80;72.80
11538;DHT22;50159;49.426;11.182;2024-03-17T10:59:40;13.90;73.20
11538;DHT22;50159;49.426;11.182;2024-03-17T11:02:20;14.10;77.20
11538;DHT22;50159;49.426;11.182;2024-03-17T11:07:45;14.50;71.80
11538;DHT22;50159;49.426;11.182;2024-03-17T11:10:21;14.60;72.10
11538;DHT22;50159;49.426;11.182;2024-03-17T11:12:51;14.70;70.90
11538;DHT22;50159;49.426;11.182;2024-03-17T11:17:55;14.90;65.90
11538;DHT22;50159;49.426;11.182;2024-03-17T11:20:57;14.90;67.20
11538;DHT22;50159;49.426;11.182;2024-03-17T11:23:25;14.60;65.30
11538;DHT22;50159;49.426;11.182;2024-03-17T11:25:53;14.30;65.60
11538;DHT22;50159;49.426;11.182;2024-03-17T11:28:44;13.90;67.30
11538;DHT22;50159;49.426;11.182;2024-03-17T11:34:30;13.90;70.30
11538;DHT22;50159;49.426;11.182;2024-03-17T11:36:58;13.80;68.90
11538;DHT22;50159;49.426;11.182;2024-03-17T11:42:26;13.50;67.50
11538;DHT22;50159;49.426;11.182;2024-03-17T11:44:59;13.50;70.60
11538;DHT22;50159;49.426;11.182;2024-03-17T11:47:32;13.50;69.00
11538;DHT22;50159;49.426;11.182;2024-03-17T11:50:01;13.60;69.60
11538;DHT22;50159;49.426;11.182;2024-03-17T11:52:29;13.80;70.60
11538;DHT22;50159;49.426;11.182;2024-03-17T11:54:55;13.90;70.20
11538;DHT22;50159;49.426;11.182;2024-03-17T11:57:22;13.90;70.20
11538;DHT22;50159;49.426;11.182;2024-03-17T11:59:49;14.00;70.20
11538;DHT22;50159;49.426;11.182;2024-03-17T12:02:20;14.00;69.20
11538;DHT22;50159;49.426;11.182;2024-03-17T12:04:51;14.10;67.50
11538;DHT22;50159;49.426;11.182;2024-03-17T12:07:18;14.10;67.70
11538;DHT22;50159;49.426;11.182;2024-03-17T12:09:46;14.20;66.00
11538;DHT22;50159;49.426;11.182;2024-03-17T12:12:22;14.10;66.00
11538;DHT22;50159;49.426;11.182;2024-03-17T12:14:49;14.10;66.40
11538;DHT22;50159;49.426;11.182;2024-03-17T12:17:22;14.10;65.60
11538;DHT22;50159;49.426;11.182;2024-03-17T12:19:49;13.90;65.00
11538;DHT22;50159;49.426;11.182;2024-03-17T12:22:17;13.90;63.90
11538;DHT22;50159;49.426;11.182;2024-03-17T12:24:43;13.80;66.00
11538;DHT22;50159;49.426;11.182;2024-03-17T12:27:15;13.90;64.60
11538;DHT22;50159;49.426;11.182;2024-03-17T12:29:43;13.90;66.00
11538;DHT22;50159;49.426;11.182;2024-03-17T12:34:39;14.20;66.40
11538;DHT22;50159;49.426;11.182;2024-03-17T12:37:05;14.40;65.60
11538;DHT22;50159;49.426;11.182;2024-03-17T12:39:32;14.50;64.60
11538;DHT22;50159;49.426;11.182;2024-03-17T12:42:02;14.60;63.50
11538;DHT22;50159;49.426;11.182;2024-03-17T12:44:36;14.60;63.80
11538;DHT22;50159;49.426;11.182;2024-03-17T12:47:10;14.40;63.00
11538;DHT22;50159;49.426;11.182;2024-03-17T12:49:44;14.40;62.40
11538;DHT22;50159;49.426;11.182;2024-03-17T12:52:32;14.20;63.00
11538;DHT22;50159;49.426;11.182;2024-03-17T12:55:08;14.20;63.70
11538;DHT22;50159;49.426;11.182;2024-03-17T13:01:00;14.30;61.10
11538;DHT22;50159;49.426;11.182;2024-03-17T13:03:28;14.30;62.10
11538;DHT22;50159;49.426;11.182;2024-03-17T13:05:55;14.50;63.10
11538;DHT22;50159;49.426;11.182;2024-03-17T13:08:21;14.70;63.10
11538;DHT22;50159;49.426;11.182;2024-03-17T13:10:47;14.90;61.70
11538;DHT22;50159;49.426;11.182;2024-03-17T13:13:13;15.00;60.30
11538;DHT22;50159;49.426;11.182;2024-03-17T13:15:43;15.10;62.40
11538;DHT22;50159;49.426;11.182;2024-03-17T13:18:11;15.20;61.30
11538;DHT22;50159;49.426;11.182;2024-03-17T13:20:43;15.20;62.30
11538;DHT22;50159;49.426;11.182;2024-03-17T13:23:11;15.40;62.50
11538;DHT22;50159;49.426;11.182;2024-03-17T13:25:36;15.50;62.50
11538;DHT22;50159;49.426;11.182;2024-03-17T13:28:03;15.60;62.00
11538;DHT22;50159;49.426;11.182;2024-03-17T13:30:30;15.70;60.80
11538;DHT22;50159;49.426;11.182;2024-03-17T13:32:56;15.60;59.60
11538;DHT22;50159;49.426;11.182;2024-03-17T13:35:29;15.40;59.80
11538;DHT22;50159;49.426;11.182;2024-03-17T13:37:56;15.30;60.80
11538;DHT22;50159;49.426;11.182;2024-03-17T13:40:25;15.10;58.90
11538;DHT22;50159;49.426;11.182;2024-03-17T13:42:53;14.80;59.50
11538;DHT22;50159;49.426;11.182;2024-03-17T13:45:20;14.60;60.40
11538;DHT22;50159;49.426;11.182;2024-03-17T13:48:00;14.60;62.10
11538;DHT22;50159;49.426;11.182;2024-03-17T13:50:29;14.50;61.70
11538;DHT22;50159;49.426;11.182;2024-03-17T13:52:56;14.50;62.80
11538;DHT22;50159;49.426;11.182;2024-03-17T13:55:22;14.70;64.30
11538;DHT22;50159;49.426;11.182;2024-03-17T13:57:54;14.90;62.90
11538;DHT22;50159;49.426;11.182;2024-03-17T14:00:21;15.10;62.50
11538;DHT22;50159;49.426;11.182;2024-03-17T14:02:49;15.40;63.60
11538;DHT22;50159;49.426;11.182;2024-03-17T14:05:19;15.70;60.70
11538;DHT22;50159;49.426;11.182;2024-03-17T14:07:47;15.80;60.00
11538;DHT22;50159;49.426;11.182;2024-03-17T14:10:15;15.90;58.40
11538;DHT22;50159;49.426;11.182;2024-03-17T14:12:43;16.10;58.90
11538;DHT22;50159;49.426;11.182;2024-03-17T14:15:10;16.30;57.30
11538;DHT22;50159;49.426;11.182;2024-03-17T14:17:40;16.60;56.30
11538;DHT22;50159;49.426;11.182;2024-03-17T14:20:08;16.50;55.50
11538;DHT22;50159;49.426;11.182;2024-03-17T14:22:38;16.90;57.60
11538;DHT22;50159;49.426;11.182;2024-03-17T14:25:05;17.40;56.20
11538;DHT22;50159;49.426;11.182;2024-03-17T14:27:31;17.50;54.70
11538;DHT22;50159;49.426;11.182;2024-03-17T14:29:57;17.10;53.60
11538;DHT22;50159;49.426;11.182;2024-03-17T14:32:23;16.50;55.20
11538;DHT22;50159;49.426;11.182;2024-03-17T14:34:49;16.00;56.50
11538;DHT22;50159;49.426;11.182;2024-03-17T14:37:15;15.50;57.20
11538;DHT22;50159;49.426;11.182;2024-03-17T14:39:41;15.00;58.40
11538;DHT22;50159;49.426;11.182;2024-03-17T14:42:07;14.60;58.70
11538;DHT22;50159;49.426;11.182;2024-03-17T14:44:34;14.20;59.70
11538;DHT22;50159;49.426;11.182;2024-03-17T14:47:03;13.90;61.10
11538;DHT22;50159;49.426;11.182;2024-03-17T14:49:33;13.70;61.50
11538;DHT22;50159;49.426;11.182;2024-03-17T14:51:59;13.60;63.10
11538;DHT22;50159;49.426;11.182;2024-03-17T14:54:25;13.50;63.90
11538;DHT22;50159;49.426;11.182;2024-03-17T14:56:52;13.50;65.20
11538;DHT22;50159;49.426;11.182;2024-03-17T14:59:19;13.60;66.30
11538;DHT22;50159;49.426;11.182;2024-03-17T15:01:45;13.60;65.00
11538;DHT22;50159;49.426;11.182;2024-03-17T15:04:13;13.50;65.00
11538;DHT22;50159;49.426;11.182;2024-03-17T15:06:40;13.50;66.40
11538;DHT22;50159;49.426;11.182;2024-03-17T15:09:06;13.50;67.00
11538;DHT22;50159;49.426;11.182;2024-03-17T15:11:33;13.50;66.60
11538;DHT22;50159;49.426;11.182;2024-03-17T15:13:59;13.50;67.60
11538;DHT22;50159;49.426;11.182;2024-03-17T15:16:25;13.50;67.50
11538;DHT22;50159;49.426;11.182;2024-03-17T15:18:51;13.40;67.80
11538;DHT22;50159;49.426;11.182;2024-03-17T15:21:16;13.40;68.20
11538;DHT22;50159;49.426;11.182;2024-03-17T15:23:42;13.40;68.50
11538;DHT22;50159;49.426;11.182;2024-03-17T15:26:08;13.40;68.10
11538;DHT22;50159;49.426;11.182;2024-03-17T15:28:40;13.40;68.40
11538;DHT22;50159;49.426;11.182;2024-03-17T15:31:07;13.40;68.20
11538;DHT22;50159;49.426;11.182;2024-03-17T15:33:34;13.30;68.10
11538;DHT22;50159;49.426;11.182;2024-03-17T15:36:01;13.30;69.40
11538;DHT22;50159;49.426;11.182;2024-03-17T15:38:30;13.30;68.80
11538;DHT22;50159;49.426;11.182;2024-03-17T15:40:59;13.30;69.90
11538;DHT22;50159;49.426;11.182;2024-03-17T15:43:27;13.30;69.60
11538;DHT22;50159;49.426;11.182;2024-03-17T15:45:54;13.30;69.80
11538;DHT22;50159;49.426;11.182;2024-03-17T15:48:19;13.20;70.30
11538;DHT22;50159;49.426;11.182;2024-03-17T15:50:52;13.20;70.30
11538;DHT22;50159;49.426;11.182;2024-03-17T15:53:19;13.20;70.10
11538;DHT22;50159;49.426;11.182;2024-03-17T15:55:52;13.20;70.40
11538;DHT22;50159;49.426;11.182;2024-03-17T15:58:23;13.10;70.20